sensor_id;sensor_type;location;lat;lon;timestamp;temperature;humidity
48551;DHT22;34397;51.176;6.738;2023-12-20T00:00:24;6.80;92.50
48551;DHT22;34397;51.176;6.738;2023-12-20T00:02:56;6.80;92.40
48551;DHT22;34397;51.176;6.738;2023-12-20T00:05:30;6.80;92.30
48551;DHT22;34397;51.176;6.738;2023-12-20T00:08:03;6.80;92.10
48551;DHT22;34397;51.176;6.738;2023-12-20T00:10:35;6.80;92.10
48551;DHT22;34397;51.176;6.738;2023-12-20T00:13:07;6.80;92.10
48551;DHT22;34397;51.176;6.738;2023-12-20T00:15:40;6.80;92.10
48551;DHT22;34397;51.176;6.738;2023-12-20T00:18:12;6.80;92.10
48551;DHT22;34397;51.176;6.738;2023-12-20T00:20:45;6.80;92.00
48551;DHT22;34397;51.176;6.738;2023-12-20T00:23:17;6.80;91.90
48551;DHT22;34397;51.176;6.738;2023-12-20T00:25:49;6.80;91.90
48551;DHT22;34397;51.176;6.738;2023-12-20T00:28:21;6.70;91.80
48551;DHT22;34397;51.176;6.738;2023-12-20T00:30:53;6.70;91.80
48551;DHT22;34397;51.176;6.738;2023-12-20T00:33:25;6.70;91.80
48551;DHT22;34397;51.176;6.738;2023-12-20T00:35:58;6.70;91.80
48551;DHT22;34397;51.176;6.738;2023-12-20T00:38:30;6.60;91.90
48551;DHT22;34397;51.176;6.738;2023-12-20T00:41:02;6.60;92.00
48551;DHT22;34397;51.176;6.738;2023-12-20T00:43:34;6.60;91.90
48551;DHT22;34397;51.176;6.738;2023-12-20T00:46:06;6.50;92.00
48551;DHT22;34397;51.176;6.738;2023-12-20T00:48:38;6.50;91.90
48551;DHT22;34397;51.176;6.738;2023-12-20T00:51:13;6.50;91.90
48551;DHT22;34397;51.176;6.738;2023-12-20T00:53:45;6.50;91.90
48551;DHT22;34397;51.176;6.738;2023-12-20T00:56:19;6.50;91.90
48551;DHT22;34397;51.176;6.738;2023-12-20T00:58:51;6.40;91.90
48551;DHT22;34397;51.176;6.738;2023-12-20T01:01:23;6.40;91.90
48551;DHT22;34397;51.176;6.738;2023-12-20T01:03:55;6.40;91.90
48551;DHT22;34397;51.176;6.738;2023-12-20T01:06:28;6.30;91.90
48551;DHT22;34397;51.176;6.738;2023-12-20T01:09:00;6.30;91.80
48551;DHT22;34397;51.176;6.738;2023-12-20T01:11:32;6.20;91.80
48551;DHT22;34397;51.176;6.738;2023-12-20T01:14:04;6.20;92.20
48551;DHT22;34397;51.176;6.738;2023-12-20T01:16:36;6.20;91.80
48551;DHT22;34397;51.176;6.738;2023-12-20T01:19:07;6.10;91.90
48551;DHT22;34397;51.176;6.738;2023-12-20T01:21:41;6.10;92.10
48551;DHT22;34397;51.176;6.738;2023-12-20T01:24:12;6.10;92.00
48551;DHT22;34397;51.176;6.738;2023-12-20T01:26:44;6.10;92.20
48551;DHT22;34397;51.176;6.738;2023-12-20T01:29:16;6.00;92.10
48551;DHT22;34397;51.176;6.738;2023-12-20T01:31:48;6.00;92.20
48551;DHT22;34397;51.176;6.738;2023-12-20T01:34:20;6.00;92.30
48551;DHT22;34397;51.176;6.738;2023-12-20T01:36:53;6.10;92.20
48551;DHT22;34397;51.176;6.738;2023-12-20T01:39:25;6.00;91.90
48551;DHT22;34397;51.176;6.738;2023-12-20T01:41:58;6.00;91.90
48551;DHT22;34397;51.176;6.738;2023-12-20T01:44:29;6.00;91.90
48551;DHT22;34397;51.176;6.738;2023-12-20T01:47:01;6.00;91.80
48551;DHT22;34397;51.176;6.738;2023-12-20T01:49:33;6.00;91.80
48551;DHT22;34397;51.176;6.738;2023-12-20T01:52:07;6.00;91.60
48551;DHT22;34397;51.176;6.738;2023-12-20T01:54:40;6.00;91.40
48551;DHT22;34397;51.176;6.738;2023-12-20T01:57:13;6.00;91.00
48551;DHT22;34397;51.176;6.738;2023-12-20T01:59:45;6.00;91.00
48551;DHT22;34397;51.176;6.738;2023-12-20T02:02:17;5.90;91.00
48551;DHT22;34397;51.176;6.738;2023-12-20T02:04:49;5.90;91.00
48551;DHT22;34397;51.176;6.738;2023-12-20T02:07:23;5.90;90.90
48551;DHT22;34397;51.176;6.738;2023-12-20T02:09:55;5.80;90.80
48551;DHT22;34397;51.176;6.738;2023-12-20T02:12:28;5.80;90.80
48551;DHT22;34397;51.176;6.738;2023-12-20T02:14:59;5.80;90.80
48551;DHT22;34397;51.176;6.738;2023-12-20T02:17:32;5.80;90.80
48551;DHT22;34397;51.176;6.738;2023-12-20T02:20:05;5.70;90.70
48551;DHT22;34397;51.176;6.738;2023-12-20T02:22:39;5.70;90.80
48551;DHT22;34397;51.176;6.738;2023-12-20T02:25:11;5.70;90.80
48551;DHT22;34397;51.176;6.738;2023-12-20T02:27:43;5.70;90.90
48551;DHT22;34397;51.176;6.738;2023-12-20T02:30:15;5.70;90.90
48551;DHT22;34397;51.176;6.738;2023-12-20T02:32:47;5.60;90.90
48551;DHT22;34397;51.176;6.738;2023-12-20T02:35:20;5.60;91.00
48551;DHT22;34397;51.176;6.738;2023-12-20T02:37:53;5.60;91.00
48551;DHT22;34397;51.176;6.738;2023-12-20T02:40:25;5.60;91.00
48551;DHT22;34397;51.176;6.738;2023-12-20T02:42:56;5.60;91.00
48551;DHT22;34397;51.176;6.738;2023-12-20T02:45:28;5.50;91.10
48551;DHT22;34397;51.176;6.738;2023-12-20T02:48:01;5.60;91.20
48551;DHT22;34397;51.176;6.738;2023-12-20T02:50:33;5.50;91.10
48551;DHT22;34397;51.176;6.738;2023-12-20T02:53:06;5.50;91.10
48551;DHT22;34397;51.176;6.738;2023-12-20T02:55:38;5.50;91.10
48551;DHT22;34397;51.176;6.738;2023-12-20T02:58:10;5.50;91.20
48551;DHT22;34397;51.176;6.738;2023-12-20T03:00:42;5.50;91.20
48551;DHT22;34397;51.176;6.738;2023-12-20T03:03:14;5.50;91.20
48551;DHT22;34397;51.176;6.738;2023-12-20T03:05:46;5.50;91.20
48551;DHT22;34397;51.176;6.738;2023-12-20T03:08:19;5.60;91.10
48551;DHT22;34397;51.176;6.738;2023-12-20T03:10:51;5.50;91.00
48551;DHT22;34397;51.176;6.738;2023-12-20T03:13:23;5.60;90.90
48551;DHT22;34397;51.176;6.738;2023-12-20T03:15:55;5.50;90.80
48551;DHT22;34397;51.176;6.738;2023-12-20T03:18:27;5.50;90.80
48551;DHT22;34397;51.176;6.738;2023-12-20T03:20:59;5.50;90.90
48551;DHT22;34397;51.176;6.738;2023-12-20T03:23:32;5.50;90.80
48551;DHT22;34397;51.176;6.738;2023-12-20T03:26:07;5.50;90.90
48551;DHT22;34397;51.176;6.738;2023-12-20T03:28:39;5.40;90.80
48551;DHT22;34397;51.176;6.738;2023-12-20T03:31:11;5.40;90.50
48551;DHT22;34397;51.176;6.738;2023-12-20T03:33:43;5.40;90.50
48551;DHT22;34397;51.176;6.738;2023-12-20T03:36:14;5.30;90.70
48551;DHT22;34397;51.176;6.738;2023-12-20T03:38:48;5.30;90.60
48551;DHT22;34397;51.176;6.738;2023-12-20T03:41:20;5.20;90.80
48551;DHT22;34397;51.176;6.738;2023-12-20T03:43:52;5.20;90.70
48551;DHT22;34397;51.176;6.738;2023-12-20T03:46:24;5.20;90.80
48551;DHT22;34397;51.176;6.738;2023-12-20T03:48:55;5.20;90.70
48551;DHT22;34397;51.176;6.738;2023-12-20T03:51:27;5.10;90.80
48551;DHT22;34397;51.176;6.738;2023-12-20T03:54:01;5.10;90.90
48551;DHT22;34397;51.176;6.738;2023-12-20T03:56:33;5.10;90.90
48551;DHT22;34397;51.176;6.738;2023-12-20T03:59:05;5.10;91.00
48551;DHT22;34397;51.176;6.738;2023-12-20T04:01:37;5.10;90.80
48551;DHT22;34397;51.176;6.738;2023-12-20T04:04:09;5.10;90.90
48551;DHT22;34397;51.176;6.738;2023-12-20T04:06:41;5.10;90.90
48551;DHT22;34397;51.176;6.738;2023-12-20T04:09:14;5.10;91.00
48551;DHT22;34397;51.176;6.738;2023-12-20T04:11:46;5.10;91.00
48551;DHT22;34397;51.176;6.738;2023-12-20T04:14:18;5.10;90.90
48551;DHT22;34397;51.176;6.738;2023-12-20T04:16:50;5.10;90.80
48551;DHT22;34397;51.176;6.738;2023-12-20T04:19:22;5.10;90.80
48551;DHT22;34397;51.176;6.738;2023-12-20T04:21:54;5.10;90.80
48551;DHT22;34397;51.176;6.738;2023-12-20T04:24:27;5.00;90.70
48551;DHT22;34397;51.176;6.738;2023-12-20T04:26:59;5.00;90.70
48551;DHT22;34397;51.176;6.738;2023-12-20T04:29:30;5.00;90.80
48551;DHT22;34397;51.176;6.738;2023-12-20T04:32:03;4.90;90.70
48551;DHT22;34397;51.176;6.738;2023-12-20T04:34:36;4.90;90.80
48551;DHT22;34397;51.176;6.738;2023-12-20T04:37:08;4.90;90.80
48551;DHT22;34397;51.176;6.738;2023-12-20T04:39:41;4.90;90.90
48551;DHT22;34397;51.176;6.738;2023-12-20T04:42:13;4.90;90.90
48551;DHT22;34397;51.176;6.738;2023-12-20T04:44:45;4.90;90.90
48551;DHT22;34397;51.176;6.738;2023-12-20T04:47:17;4.90;91.00
48551;DHT22;34397;51.176;6.738;2023-12-20T04:49:48;4.90;91.00
48551;DHT22;34397;51.176;6.738;2023-12-20T04:52:20;4.90;91.00
48551;DHT22;34397;51.176;6.738;2023-12-20T04:54:54;4.90;91.10
48551;DHT22;34397;51.176;6.738;2023-12-20T04:57:25;4.90;91.10
48551;DHT22;34397;51.176;6.738;2023-12-20T04:59:57;5.00;91.10
48551;DHT22;34397;51.176;6.738;2023-12-20T05:02:29;5.00;91.00
48551;DHT22;34397;51.176;6.738;2023-12-20T05:05:01;5.00;90.90
48551;DHT22;34397;51.176;6.738;2023-12-20T05:07:33;5.00;90.70
48551;DHT22;34397;51.176;6.738;2023-12-20T05:10:07;5.00;90.60
48551;DHT22;34397;51.176;6.738;2023-12-20T05:12:40;4.90;90.50
48551;DHT22;34397;51.176;6.738;2023-12-20T05:15:12;4.90;90.60
48551;DHT22;34397;51.176;6.738;2023-12-20T05:17:44;4.90;90.70
48551;DHT22;34397;51.176;6.738;2023-12-20T05:20:15;4.90;90.60
48551;DHT22;34397;51.176;6.738;2023-12-20T05:22:47;4.90;90.70
48551;DHT22;34397;51.176;6.738;2023-12-20T05:25:20;4.90;90.70
48551;DHT22;34397;51.176;6.738;2023-12-20T05:27:52;4.80;90.60
48551;DHT22;34397;51.176;6.738;2023-12-20T05:30:24;4.80;90.80
48551;DHT22;34397;51.176;6.738;2023-12-20T05:32:57;4.80;90.80
48551;DHT22;34397;51.176;6.738;2023-12-20T05:35:28;4.80;90.80
48551;DHT22;34397;51.176;6.738;2023-12-20T05:38:00;4.80;90.80
48551;DHT22;34397;51.176;6.738;2023-12-20T05:40:34;4.80;90.80
48551;DHT22;34397;51.176;6.738;2023-12-20T05:43:05;4.80;90.90
48551;DHT22;34397;51.176;6.738;2023-12-20T05:45:37;4.80;90.90
48551;DHT22;34397;51.176;6.738;2023-12-20T05:48:09;4.80;90.90
48551;DHT22;34397;51.176;6.738;2023-12-20T05:50:41;4.80;91.10
48551;DHT22;34397;51.176;6.738;2023-12-20T05:53:13;4.90;91.10
48551;DHT22;34397;51.176;6.738;2023-12-20T05:55:46;4.90;91.10
48551;DHT22;34397;51.176;6.738;2023-12-20T05:58:18;4.90;91.00
48551;DHT22;34397;51.176;6.738;2023-12-20T06:00:50;4.90;91.10
48551;DHT22;34397;51.176;6.738;2023-12-20T06:03:22;4.90;90.90
48551;DHT22;34397;51.176;6.738;2023-12-20T06:06:05;5.00;91.00
48551;DHT22;34397;51.176;6.738;2023-12-20T06:08:38;5.00;91.00
48551;DHT22;34397;51.176;6.738;2023-12-20T06:11:11;5.00;91.00
48551;DHT22;34397;51.176;6.738;2023-12-20T06:13:44;5.00;91.00
48551;DHT22;34397;51.176;6.738;2023-12-20T06:16:16;5.00;90.90
48551;DHT22;34397;51.176;6.738;2023-12-20T06:18:51;5.00;90.90
48551;DHT22;34397;51.176;6.738;2023-12-20T06:21:27;5.10;91.00
48551;DHT22;34397;51.176;6.738;2023-12-20T06:23:59;5.00;90.90
48551;DHT22;34397;51.176;6.738;2023-12-20T06:26:32;5.00;90.80
48551;DHT22;34397;51.176;6.738;2023-12-20T06:29:04;5.10;90.80
48551;DHT22;34397;51.176;6.738;2023-12-20T06:31:37;5.10;90.70
48551;DHT22;34397;51.176;6.738;2023-12-20T06:34:09;5.10;90.60
48551;DHT22;34397;51.176;6.738;2023-12-20T06:36:41;5.10;90.70
48551;DHT22;34397;51.176;6.738;2023-12-20T06:39:13;5.10;90.80
48551;DHT22;34397;51.176;6.738;2023-12-20T06:41:46;5.10;90.60
48551;DHT22;34397;51.176;6.738;2023-12-20T06:44:18;5.10;90.80
48551;DHT22;34397;51.176;6.738;2023-12-20T06:46:50;5.10;90.70
48551;DHT22;34397;51.176;6.738;2023-12-20T06:49:21;5.10;90.70
48551;DHT22;34397;51.176;6.738;2023-12-20T06:51:53;5.20;90.70
48551;DHT22;34397;51.176;6.738;2023-12-20T06:54:25;5.20;90.50
48551;DHT22;34397;51.176;6.738;2023-12-20T06:56:59;5.20;90.60
48551;DHT22;34397;51.176;6.738;2023-12-20T06:59:30;5.20;90.50
48551;DHT22;34397;51.176;6.738;2023-12-20T07:02:09;5.20;90.50
48551;DHT22;34397;51.176;6.738;2023-12-20T07:04:41;5.20;90.60
48551;DHT22;34397;51.176;6.738;2023-12-20T07:07:14;5.20;90.20
48551;DHT22;34397;51.176;6.738;2023-12-20T07:09:46;5.20;90.40
48551;DHT22;34397;51.176;6.738;2023-12-20T07:12:20;5.20;90.20
48551;DHT22;34397;51.176;6.738;2023-12-20T07:14:55;5.20;90.30
48551;DHT22;34397;51.176;6.738;2023-12-20T07:17:27;5.20;90.00
48551;DHT22;34397;51.176;6.738;2023-12-20T07:19:59;5.30;90.20
48551;DHT22;34397;51.176;6.738;2023-12-20T07:22:34;5.30;90.10
48551;DHT22;34397;51.176;6.738;2023-12-20T07:25:06;5.30;90.30
48551;DHT22;34397;51.176;6.738;2023-12-20T07:27:44;5.30;90.30
48551;DHT22;34397;51.176;6.738;2023-12-20T07:30:16;5.30;90.00
48551;DHT22;34397;51.176;6.738;2023-12-20T07:32:48;5.20;90.20
48551;DHT22;34397;51.176;6.738;2023-12-20T07:35:20;5.30;90.20
48551;DHT22;34397;51.176;6.738;2023-12-20T07:37:52;5.30;90.20
48551;DHT22;34397;51.176;6.738;2023-12-20T07:40:24;5.30;90.20
48551;DHT22;34397;51.176;6.738;2023-12-20T07:42:57;5.40;90.10
48551;DHT22;34397;51.176;6.738;2023-12-20T07:45:29;5.30;89.50
48551;DHT22;34397;51.176;6.738;2023-12-20T07:48:01;5.30;89.70
48551;DHT22;34397;51.176;6.738;2023-12-20T07:50:33;5.40;90.00
48551;DHT22;34397;51.176;6.738;2023-12-20T07:53:05;5.40;89.80
48551;DHT22;34397;51.176;6.738;2023-12-20T07:55:37;5.40;89.10
48551;DHT22;34397;51.176;6.738;2023-12-20T07:58:12;5.30;89.00
48551;DHT22;34397;51.176;6.738;2023-12-20T08:00:43;5.30;89.60
48551;DHT22;34397;51.176;6.738;2023-12-20T08:03:15;5.40;89.40
48551;DHT22;34397;51.176;6.738;2023-12-20T08:05:47;5.40;89.00
48551;DHT22;34397;51.176;6.738;2023-12-20T08:08:19;5.30;88.60
48551;DHT22;34397;51.176;6.738;2023-12-20T08:10:51;5.40;89.00
48551;DHT22;34397;51.176;6.738;2023-12-20T08:13:24;5.30;89.20
48551;DHT22;34397;51.176;6.738;2023-12-20T08:15:56;5.30;89.10
48551;DHT22;34397;51.176;6.738;2023-12-20T08:18:28;5.30;89.20
48551;DHT22;34397;51.176;6.738;2023-12-20T08:21:00;5.30;89.30
48551;DHT22;34397;51.176;6.738;2023-12-20T08:23:32;5.30;89.00
48551;DHT22;34397;51.176;6.738;2023-12-20T08:26:05;5.30;89.20
48551;DHT22;34397;51.176;6.738;2023-12-20T08:28:38;5.30;89.20
48551;DHT22;34397;51.176;6.738;2023-12-20T08:31:13;5.30;88.90
48551;DHT22;34397;51.176;6.738;2023-12-20T08:33:46;5.30;89.10
48551;DHT22;34397;51.176;6.738;2023-12-20T08:36:19;5.40;89.00
48551;DHT22;34397;51.176;6.738;2023-12-20T08:38:51;5.30;89.00
48551;DHT22;34397;51.176;6.738;2023-12-20T08:41:23;5.40;89.00
48551;DHT22;34397;51.176;6.738;2023-12-20T08:43:57;5.30;88.60
48551;DHT22;34397;51.176;6.738;2023-12-20T08:46:29;5.40;88.80
48551;DHT22;34397;51.176;6.738;2023-12-20T08:49:01;5.40;89.20
48551;DHT22;34397;51.176;6.738;2023-12-20T08:51:32;5.40;89.20
48551;DHT22;34397;51.176;6.738;2023-12-20T08:54:04;5.40;88.30
48551;DHT22;34397;51.176;6.738;2023-12-20T08:56:38;5.40;88.20
48551;DHT22;34397;51.176;6.738;2023-12-20T08:59:11;5.40;88.60
48551;DHT22;34397;51.176;6.738;2023-12-20T09:01:43;5.30;88.30
48551;DHT22;34397;51.176;6.738;2023-12-20T09:04:15;5.30;88.10
48551;DHT22;34397;51.176;6.738;2023-12-20T09:06:47;5.30;88.90
48551;DHT22;34397;51.176;6.738;2023-12-20T09:09:19;5.20;89.00
48551;DHT22;34397;51.176;6.738;2023-12-20T09:11:51;5.30;89.10
48551;DHT22;34397;51.176;6.738;2023-12-20T09:14:24;5.30;88.30
48551;DHT22;34397;51.176;6.738;2023-12-20T09:16:56;5.30;88.90
48551;DHT22;34397;51.176;6.738;2023-12-20T09:19:28;5.30;88.80
48551;DHT22;34397;51.176;6.738;2023-12-20T09:22:01;5.30;88.60
48551;DHT22;34397;51.176;6.738;2023-12-20T09:24:34;5.30;88.80
48551;DHT22;34397;51.176;6.738;2023-12-20T09:27:06;5.30;88.80
48551;DHT22;34397;51.176;6.738;2023-12-20T09:29:39;5.30;88.10
48551;DHT22;34397;51.176;6.738;2023-12-20T09:32:11;5.40;88.80
48551;DHT22;34397;51.176;6.738;2023-12-20T09:34:42;5.40;88.30
48551;DHT22;34397;51.176;6.738;2023-12-20T09:37:14;5.40;88.30
48551;DHT22;34397;51.176;6.738;2023-12-20T09:39:46;5.50;88.60
48551;DHT22;34397;51.176;6.738;2023-12-20T09:42:24;5.50;88.30
48551;DHT22;34397;51.176;6.738;2023-12-20T09:45:01;5.60;87.40
48551;DHT22;34397;51.176;6.738;2023-12-20T09:47:34;5.60;87.90
48551;DHT22;34397;51.176;6.738;2023-12-20T09:50:07;5.60;87.80
48551;DHT22;34397;51.176;6.738;2023-12-20T09:52:40;5.60;87.30
48551;DHT22;34397;51.176;6.738;2023-12-20T09:55:12;5.60;87.80
48551;DHT22;34397;51.176;6.738;2023-12-20T09:57:45;5.60;88.10
48551;DHT22;34397;51.176;6.738;2023-12-20T10:00:19;5.60;87.40
48551;DHT22;34397;51.176;6.738;2023-12-20T10:02:57;5.60;87.00
48551;DHT22;34397;51.176;6.738;2023-12-20T10:05:30;5.60;87.60
48551;DHT22;34397;51.176;6.738;2023-12-20T10:08:03;5.70;87.40
48551;DHT22;34397;51.176;6.738;2023-12-20T10:10:36;5.70;87.10
48551;DHT22;34397;51.176;6.738;2023-12-20T10:13:09;5.70;87.20
48551;DHT22;34397;51.176;6.738;2023-12-20T10:15:43;5.70;87.30
48551;DHT22;34397;51.176;6.738;2023-12-20T10:18:15;5.70;87.70
48551;DHT22;34397;51.176;6.738;2023-12-20T10:20:47;5.70;87.30
48551;DHT22;34397;51.176;6.738;2023-12-20T10:23:19;5.70;87.00
48551;DHT22;34397;51.176;6.738;2023-12-20T10:25:56;5.70;87.10
48551;DHT22;34397;51.176;6.738;2023-12-20T10:28:33;5.70;86.40
48551;DHT22;34397;51.176;6.738;2023-12-20T10:31:07;5.70;86.90
48551;DHT22;34397;51.176;6.738;2023-12-20T10:33:40;5.70;86.70
48551;DHT22;34397;51.176;6.738;2023-12-20T10:36:12;5.80;87.00
48551;DHT22;34397;51.176;6.738;2023-12-20T10:38:44;5.70;86.60
48551;DHT22;34397;51.176;6.738;2023-12-20T10:41:22;5.70;86.40
48551;DHT22;34397;51.176;6.738;2023-12-20T10:43:58;5.80;87.30
48551;DHT22;34397;51.176;6.738;2023-12-20T10:46:33;5.70;87.20
48551;DHT22;34397;51.176;6.738;2023-12-20T10:49:05;5.80;86.70
48551;DHT22;34397;51.176;6.738;2023-12-20T10:51:38;5.80;86.60
48551;DHT22;34397;51.176;6.738;2023-12-20T10:54:10;5.80;87.20
48551;DHT22;34397;51.176;6.738;2023-12-20T10:56:42;5.80;86.50
48551;DHT22;34397;51.176;6.738;2023-12-20T10:59:17;5.80;87.10
48551;DHT22;34397;51.176;6.738;2023-12-20T11:01:54;5.80;86.90
48551;DHT22;34397;51.176;6.738;2023-12-20T11:04:35;5.80;86.50
48551;DHT22;34397;51.176;6.738;2023-12-20T11:07:19;5.80;86.20
48551;DHT22;34397;51.176;6.738;2023-12-20T11:09:58;5.80;86.70
48551;DHT22;34397;51.176;6.738;2023-12-20T11:12:36;5.90;87.00
48551;DHT22;34397;51.176;6.738;2023-12-20T11:15:10;5.90;86.80
48551;DHT22;34397;51.176;6.738;2023-12-20T11:17:45;5.90;87.10
48551;DHT22;34397;51.176;6.738;2023-12-20T11:20:17;5.90;86.30
48551;DHT22;34397;51.176;6.738;2023-12-20T11:22:53;5.90;86.30
48551;DHT22;34397;51.176;6.738;2023-12-20T11:25:26;6.00;86.40
48551;DHT22;34397;51.176;6.738;2023-12-20T11:28:09;6.00;86.80
48551;DHT22;34397;51.176;6.738;2023-12-20T11:30:42;6.00;86.50
48551;DHT22;34397;51.176;6.738;2023-12-20T11:33:21;6.00;86.30
48551;DHT22;34397;51.176;6.738;2023-12-20T11:35:55;6.00;85.80
48551;DHT22;34397;51.176;6.738;2023-12-20T11:38:28;5.90;86.40
48551;DHT22;34397;51.176;6.738;2023-12-20T11:41:07;6.00;86.80
48551;DHT22;34397;51.176;6.738;2023-12-20T11:43:39;5.90;86.90
48551;DHT22;34397;51.176;6.738;2023-12-20T11:46:11;5.80;87.30
48551;DHT22;34397;51.176;6.738;2023-12-20T11:48:44;5.70;87.30
48551;DHT22;34397;51.176;6.738;2023-12-20T11:51:18;5.50;88.10
48551;DHT22;34397;51.176;6.738;2023-12-20T11:53:52;5.60;88.30
48551;DHT22;34397;51.176;6.738;2023-12-20T11:56:24;5.60;88.40
48551;DHT22;34397;51.176;6.738;2023-12-20T11:59:02;5.70;88.60
48551;DHT22;34397;51.176;6.738;2023-12-20T12:01:38;5.70;87.90
48551;DHT22;34397;51.176;6.738;2023-12-20T12:04:11;5.80;88.90
48551;DHT22;34397;51.176;6.738;2023-12-20T12:06:43;5.90;88.80
48551;DHT22;34397;51.176;6.738;2023-12-20T12:09:15;6.00;88.60
48551;DHT22;34397;51.176;6.738;2023-12-20T12:11:48;6.10;87.30
48551;DHT22;34397;51.176;6.738;2023-12-20T12:14:20;6.10;87.10
48551;DHT22;34397;51.176;6.738;2023-12-20T12:16:55;6.00;86.50
48551;DHT22;34397;51.176;6.738;2023-12-20T12:19:29;6.00;86.70
48551;DHT22;34397;51.176;6.738;2023-12-20T12:22:06;6.00;87.30
48551;DHT22;34397;51.176;6.738;2023-12-20T12:24:40;6.00;87.40
48551;DHT22;34397;51.176;6.738;2023-12-20T12:27:13;6.10;87.50
48551;DHT22;34397;51.176;6.738;2023-12-20T12:30:01;6.10;87.00
48551;DHT22;34397;51.176;6.738;2023-12-20T12:32:34;6.10;87.10
48551;DHT22;34397;51.176;6.738;2023-12-20T12:35:08;6.10;87.80
48551;DHT22;34397;51.176;6.738;2023-12-20T12:37:40;6.10;87.80
48551;DHT22;34397;51.176;6.738;2023-12-20T12:40:15;6.20;87.40
48551;DHT22;34397;51.176;6.738;2023-12-20T12:42:47;6.20;87.90
48551;DHT22;34397;51.176;6.738;2023-12-20T12:45:19;6.20;87.60
48551;DHT22;34397;51.176;6.738;2023-12-20T12:47:51;6.20;87.60
48551;DHT22;34397;51.176;6.738;2023-12-20T12:50:26;6.20;87.90
48551;DHT22;34397;51.176;6.738;2023-12-20T12:52:59;6.20;88.00
48551;DHT22;34397;51.176;6.738;2023-12-20T12:55:31;6.20;87.80
48551;DHT22;34397;51.176;6.738;2023-12-20T12:58:03;6.20;87.60
48551;DHT22;34397;51.176;6.738;2023-12-20T13:00:35;6.20;87.70
48551;DHT22;34397;51.176;6.738;2023-12-20T13:03:07;6.30;88.30
48551;DHT22;34397;51.176;6.738;2023-12-20T13:05:40;6.30;88.30
48551;DHT22;34397;51.176;6.738;2023-12-20T13:08:12;6.30;88.10
48551;DHT22;34397;51.176;6.738;2023-12-20T13:10:44;6.30;88.50
48551;DHT22;34397;51.176;6.738;2023-12-20T13:13:16;6.30;88.90
48551;DHT22;34397;51.176;6.738;2023-12-20T13:15:48;6.30;89.30
48551;DHT22;34397;51.176;6.738;2023-12-20T13:18:25;6.30;89.40
48551;DHT22;34397;51.176;6.738;2023-12-20T13:20:58;6.30;89.00
48551;DHT22;34397;51.176;6.738;2023-12-20T13:23:30;6.30;88.80
48551;DHT22;34397;51.176;6.738;2023-12-20T13:26:02;6.30;89.20
48551;DHT22;34397;51.176;6.738;2023-12-20T13:28:34;6.30;89.50
48551;DHT22;34397;51.176;6.738;2023-12-20T13:31:06;6.30;89.50
48551;DHT22;34397;51.176;6.738;2023-12-20T13:33:37;6.20;89.60
48551;DHT22;34397;51.176;6.738;2023-12-20T13:36:11;6.20;89.70
48551;DHT22;34397;51.176;6.738;2023-12-20T13:38:43;6.20;89.70
48551;DHT22;34397;51.176;6.738;2023-12-20T13:41:15;6.20;89.40
48551;DHT22;34397;51.176;6.738;2023-12-20T13:43:47;6.20;89.60
48551;DHT22;34397;51.176;6.738;2023-12-20T13:46:19;6.20;89.70
48551;DHT22;34397;51.176;6.738;2023-12-20T13:48:51;6.30;89.90
48551;DHT22;34397;51.176;6.738;2023-12-20T13:51:24;6.20;89.80
48551;DHT22;34397;51.176;6.738;2023-12-20T13:53:56;6.20;90.00
48551;DHT22;34397;51.176;6.738;2023-12-20T13:56:29;6.20;90.10
48551;DHT22;34397;51.176;6.738;2023-12-20T13:59:01;6.20;90.10
48551;DHT22;34397;51.176;6.738;2023-12-20T14:01:33;6.20;90.20
48551;DHT22;34397;51.176;6.738;2023-12-20T14:04:06;6.20;90.20
48551;DHT22;34397;51.176;6.738;2023-12-20T14:06:40;6.20;90.00
48551;DHT22;34397;51.176;6.738;2023-12-20T14:09:13;6.20;90.00
48551;DHT22;34397;51.176;6.738;2023-12-20T14:11:44;6.20;89.90
48551;DHT22;34397;51.176;6.738;2023-12-20T14:14:16;6.20;90.20
48551;DHT22;34397;51.176;6.738;2023-12-20T14:16:48;6.20;89.50
48551;DHT22;34397;51.176;6.738;2023-12-20T14:19:20;6.10;89.90
48551;DHT22;34397;51.176;6.738;2023-12-20T14:21:53;6.20;90.00
48551;DHT22;34397;51.176;6.738;2023-12-20T14:24:25;6.20;90.00
48551;DHT22;34397;51.176;6.738;2023-12-20T14:26:57;6.20;89.90
48551;DHT22;34397;51.176;6.738;2023-12-20T14:29:29;6.30;89.90
48551;DHT22;34397;51.176;6.738;2023-12-20T14:32:01;6.30;89.70
48551;DHT22;34397;51.176;6.738;2023-12-20T14:34:33;6.30;89.70
48551;DHT22;34397;51.176;6.738;2023-12-20T14:37:06;6.30;89.80
48551;DHT22;34397;51.176;6.738;2023-12-20T14:39:38;6.20;89.80
48551;DHT22;34397;51.176;6.738;2023-12-20T14:42:11;6.20;90.30
48551;DHT22;34397;51.176;6.738;2023-12-20T14:44:44;6.20;90.00
48551;DHT22;34397;51.176;6.738;2023-12-20T14:47:16;6.30;90.00
48551;DHT22;34397;51.176;6.738;2023-12-20T14:49:48;6.30;89.80
48551;DHT22;34397;51.176;6.738;2023-12-20T14:52:21;6.30;89.90
48551;DHT22;34397;51.176;6.738;2023-12-20T14:54:53;6.30;90.00
48551;DHT22;34397;51.176;6.738;2023-12-20T14:57:25;6.30;89.80
48551;DHT22;34397;51.176;6.738;2023-12-20T14:59:57;6.40;90.00
48551;DHT22;34397;51.176;6.738;2023-12-20T15:02:29;6.40;89.70
48551;DHT22;34397;51.176;6.738;2023-12-20T15:05:02;6.40;89.70
48551;DHT22;34397;51.176;6.738;2023-12-20T15:07:35;6.50;89.80
48551;DHT22;34397;51.176;6.738;2023-12-20T15:10:08;6.50;89.50
48551;DHT22;34397;51.176;6.738;2023-12-20T15:12:40;6.50;89.20
48551;DHT22;34397;51.176;6.738;2023-12-20T15:15:13;6.50;89.30
48551;DHT22;34397;51.176;6.738;2023-12-20T15:17:44;6.50;89.40
48551;DHT22;34397;51.176;6.738;2023-12-20T15:20:16;6.40;89.60
48551;DHT22;34397;51.176;6.738;2023-12-20T15:22:50;6.40;89.80
48551;DHT22;34397;51.176;6.738;2023-12-20T15:25:21;6.40;89.60
48551;DHT22;34397;51.176;6.738;2023-12-20T15:27:53;6.40;89.40
48551;DHT22;34397;51.176;6.738;2023-12-20T15:30:25;6.40;89.70
48551;DHT22;34397;51.176;6.738;2023-12-20T15:32:57;6.40;89.90
48551;DHT22;34397;51.176;6.738;2023-12-20T15:35:29;6.40;89.60
48551;DHT22;34397;51.176;6.738;2023-12-20T15:38:03;6.40;89.80
48551;DHT22;34397;51.176;6.738;2023-12-20T15:40:35;6.50;89.70
48551;DHT22;34397;51.176;6.738;2023-12-20T15:43:07;6.50;89.70
48551;DHT22;34397;51.176;6.738;2023-12-20T15:45:39;6.50;89.60
48551;DHT22;34397;51.176;6.738;2023-12-20T15:48:11;6.50;89.30
48551;DHT22;34397;51.176;6.738;2023-12-20T15:50:48;6.50;88.70
48551;DHT22;34397;51.176;6.738;2023-12-20T15:53:21;6.40;89.30
48551;DHT22;34397;51.176;6.738;2023-12-20T15:55:53;6.50;89.60
48551;DHT22;34397;51.176;6.738;2023-12-20T15:58:25;6.50;89.50
48551;DHT22;34397;51.176;6.738;2023-12-20T16:00:57;6.50;89.40
48551;DHT22;34397;51.176;6.738;2023-12-20T16:03:29;6.60;89.60
48551;DHT22;34397;51.176;6.738;2023-12-20T16:06:01;6.60;88.70
48551;DHT22;34397;51.176;6.738;2023-12-20T16:08:34;6.60;88.80
48551;DHT22;34397;51.176;6.738;2023-12-20T16:11:06;6.60;88.60
48551;DHT22;34397;51.176;6.738;2023-12-20T16:13:38;6.60;88.60
48551;DHT22;34397;51.176;6.738;2023-12-20T16:16:10;6.50;88.60
48551;DHT22;34397;51.176;6.738;2023-12-20T16:18:42;6.50;88.80